sensor_id;sensor_type;location;lat;lon;timestamp;temperature;humidity
16523;DHT22;19889;52.546;13.348;2023-04-02T00:02:31;6.60;99.90
16523;DHT22;19889;52.546;13.348;2023-04-02T00:08:28;6.50;99.90
16523;DHT22;19889;52.546;13.348;2023-04-02T00:11:05;6.50;99.90
16523;DHT22;19889;52.546;13.348;2023-04-02T00:13:35;6.50;99.90
16523;DHT22;19889;52.546;13.348;2023-04-02T00:16:05;6.50;99.90
16523;DHT22;19889;52.546;13.348;2023-04-02T00:18:33;6.50;99.90
16523;DHT22;19889;52.546;13.348;2023-04-02T00:21:10;6.50;99.90
16523;DHT22;19889;52.546;13.348;2023-04-02T00:23:41;6.50;99.90
16523;DHT22;19889;52.546;13.348;2023-04-02T00:26:22;6.50;99.90
16523;DHT22;19889;52.546;13.348;2023-04-02T00:28:50;6.40;99.90
16523;DHT22;19889;52.546;13.348;2023-04-02T00:31:18;6.30;99.90
16523;DHT22;19889;52.546;13.348;2023-04-02T00:33:46;6.50;99.90
16523;DHT22;19889;52.546;13.348;2023-04-02T00:36:14;6.40;99.90
16523;DHT22;19889;52.546;13.348;2023-04-02T00:38:41;6.40;99.90
16523;DHT22;19889;52.546;13.348;2023-04-02T00:41:15;6.40;99.90
16523;DHT22;19889;52.546;13.348;2023-04-02T00:43:44;6.50;99.90
16523;DHT22;19889;52.546;13.348;2023-04-02T00:46:17;6.50;99.90
16523;DHT22;19889;52.546;13.348;2023-04-02T00:48:51;6.60;99.90
16523;DHT22;19889;52.546;13.348;2023-04-02T00:51:22;6.60;99.90
16523;DHT22;19889;52.546;13.348;2023-04-02T00:53:52;6.60;99.90
16523;DHT22;19889;52.546;13.348;2023-04-02T00:56:24;6.50;99.90
16523;DHT22;19889;52.546;13.348;2023-04-02T00:58:56;6.50;99.90
16523;DHT22;19889;52.546;13.348;2023-04-02T01:01:25;6.50;99.90
16523;DHT22;19889;52.546;13.348;2023-04-02T01:03:55;6.50;99.90
16523;DHT22;19889;52.546;13.348;2023-04-02T01:06:27;6.50;99.90
16523;DHT22;19889;52.546;13.348;2023-04-02T01:09:12;6.50;99.90
16523;DHT22;19889;52.546;13.348;2023-04-02T01:11:58;6.50;99.90
16523;DHT22;19889;52.546;13.348;2023-04-02T01:14:39;6.50;99.90
16523;DHT22;19889;52.546;13.348;2023-04-02T01:17:19;6.50;99.90
16523;DHT22;19889;52.546;13.348;2023-04-02T01:22:56;6.50;99.90
16523;DHT22;19889;52.546;13.348;2023-04-02T01:25:35;6.50;99.90
16523;DHT22;19889;52.546;13.348;2023-04-02T01:28:09;6.50;99.90
16523;DHT22;19889;52.546;13.348;2023-04-02T01:30:44;6.50;99.90
16523;DHT22;19889;52.546;13.348;2023-04-02T01:33:12;6.50;99.90
16523;DHT22;19889;52.546;13.348;2023-04-02T01:35:44;6.50;99.90
16523;DHT22;19889;52.546;13.348;2023-04-02T01:38:16;6.50;99.90
16523;DHT22;19889;52.546;13.348;2023-04-02T01:40:47;6.50;99.90
16523;DHT22;19889;52.546;13.348;2023-04-02T01:43:23;6.50;99.90
16523;DHT22;19889;52.546;13.348;2023-04-02T01:45:56;6.50;99.90
16523;DHT22;19889;52.546;13.348;2023-04-02T01:48:25;6.50;99.90
16523;DHT22;19889;52.546;13.348;2023-04-02T01:50:56;6.50;99.90
16523;DHT22;19889;52.546;13.348;2023-04-02T01:53:28;6.50;99.90
16523;DHT22;19889;52.546;13.348;2023-04-02T01:55:57;6.40;99.90
16523;DHT22;19889;52.546;13.348;2023-04-02T01:58:27;6.40;99.90
16523;DHT22;19889;52.546;13.348;2023-04-02T02:00:59;6.50;99.90
16523;DHT22;19889;52.546;13.348;2023-04-02T02:03:28;6.40;99.90
16523;DHT22;19889;52.546;13.348;2023-04-02T02:05:56;6.40;99.90
16523;DHT22;19889;52.546;13.348;2023-04-02T02:08:37;6.40;99.90
16523;DHT22;19889;52.546;13.348;2023-04-02T02:11:12;6.40;99.90
16523;DHT22;19889;52.546;13.348;2023-04-02T02:13:45;6.40;99.90
16523;DHT22;19889;52.546;13.348;2023-04-02T02:16:15;6.40;99.90
16523;DHT22;19889;52.546;13.348;2023-04-02T02:18:45;6.40;99.90
16523;DHT22;19889;52.546;13.348;2023-04-02T02:21:23;6.40;99.90
16523;DHT22;19889;52.546;13.348;2023-04-02T02:23:54;6.40;99.90
16523;DHT22;19889;52.546;13.348;2023-04-02T02:26:22;6.40;99.90
16523;DHT22;19889;52.546;13.348;2023-04-02T02:28:53;6.40;99.90
16523;DHT22;19889;52.546;13.348;2023-04-02T02:31:27;6.30;99.90
16523;DHT22;19889;52.546;13.348;2023-04-02T02:34:00;6.30;99.90
16523;DHT22;19889;52.546;13.348;2023-04-02T02:36:32;6.30;99.90
16523;DHT22;19889;52.546;13.348;2023-04-02T02:39:06;6.30;99.90
16523;DHT22;19889;52.546;13.348;2023-04-02T02:41:45;6.30;99.90
16523;DHT22;19889;52.546;13.348;2023-04-02T02:44:17;6.40;99.90
16523;DHT22;19889;52.546;13.348;2023-04-02T02:46:49;6.40;99.90
16523;DHT22;19889;52.546;13.348;2023-04-02T02:49:21;6.40;99.90
16523;DHT22;19889;52.546;13.348;2023-04-02T02:51:57;6.40;99.90
16523;DHT22;19889;52.546;13.348;2023-04-02T02:54:34;6.40;99.90
16523;DHT22;19889;52.546;13.348;2023-04-02T02:57:06;6.40;99.90
16523;DHT22;19889;52.546;13.348;2023-04-02T02:59:35;6.40;99.90
16523;DHT22;19889;52.546;13.348;2023-04-02T03:02:05;6.40;99.90
16523;DHT22;19889;52.546;13.348;2023-04-02T03:04:33;6.80;99.90
16523;DHT22;19889;52.546;13.348;2023-04-02T03:07:03;6.50;99.90
16523;DHT22;19889;52.546;13.348;2023-04-02T03:09:36;6.40;99.90
16523;DHT22;19889;52.546;13.348;2023-04-02T03:12:11;6.50;99.90
16523;DHT22;19889;52.546;13.348;2023-04-02T03:14:46;6.50;99.90
16523;DHT22;19889;52.546;13.348;2023-04-02T03:17:18;6.60;99.90
16523;DHT22;19889;52.546;13.348;2023-04-02T03:19:49;6.60;99.90
16523;DHT22;19889;52.546;13.348;2023-04-02T03:22:22;6.60;99.90
16523;DHT22;19889;52.546;13.348;2023-04-02T03:24:54;6.60;99.90
16523;DHT22;19889;52.546;13.348;2023-04-02T03:27:28;6.50;99.90
16523;DHT22;19889;52.546;13.348;2023-04-02T03:30:09;6.50;99.90
16523;DHT22;19889;52.546;13.348;2023-04-02T03:32:43;5.20;99.90
16523;DHT22;19889;52.546;13.348;2023-04-02T03:35:18;6.60;99.90
16523;DHT22;19889;52.546;13.348;2023-04-02T03:37:53;6.60;99.90
16523;DHT22;19889;52.546;13.348;2023-04-02T03:40:25;6.60;99.90
16523;DHT22;19889;52.546;13.348;2023-04-02T03:42:59;6.50;99.90
16523;DHT22;19889;52.546;13.348;2023-04-02T03:45:32;6.50;99.90
16523;DHT22;19889;52.546;13.348;2023-04-02T03:48:04;6.50;99.90
16523;DHT22;19889;52.546;13.348;2023-04-02T03:50:37;6.50;99.90
16523;DHT22;19889;52.546;13.348;2023-04-02T03:53:07;6.50;99.90
16523;DHT22;19889;52.546;13.348;2023-04-02T03:55:37;6.50;99.90
16523;DHT22;19889;52.546;13.348;2023-04-02T03:58:12;6.50;99.90
16523;DHT22;19889;52.546;13.348;2023-04-02T04:00:44;6.50;99.90
16523;DHT22;19889;52.546;13.348;2023-04-02T04:03:18;6.50;99.90
16523;DHT22;19889;52.546;13.348;2023-04-02T04:05:49;6.40;99.90
16523;DHT22;19889;52.546;13.348;2023-04-02T04:08:19;6.50;99.90
16523;DHT22;19889;52.546;13.348;2023-04-02T04:10:51;6.50;99.90
16523;DHT22;19889;52.546;13.348;2023-04-02T04:13:24;6.40;99.90
16523;DHT22;19889;52.546;13.348;2023-04-02T04:15:57;6.50;99.90
16523;DHT22;19889;52.546;13.348;2023-04-02T04:18:31;6.40;99.90
16523;DHT22;19889;52.546;13.348;2023-04-02T04:21:13;6.50;99.90
16523;DHT22;19889;52.546;13.348;2023-04-02T04:23:47;6.50;99.90
16523;DHT22;19889;52.546;13.348;2023-04-02T04:26:20;6.50;99.90
16523;DHT22;19889;52.546;13.348;2023-04-02T04:28:59;6.60;99.90
16523;DHT22;19889;52.546;13.348;2023-04-02T04:31:35;6.50;99.90
16523;DHT22;19889;52.546;13.348;2023-04-02T04:34:10;6.40;99.90
16523;DHT22;19889;52.546;13.348;2023-04-02T04:36:43;6.50;99.90
16523;DHT22;19889;52.546;13.348;2023-04-02T04:39:16;6.40;99.90
16523;DHT22;19889;52.546;13.348;2023-04-02T04:41:49;6.40;99.90
16523;DHT22;19889;52.546;13.348;2023-04-02T04:44:22;5.20;99.90
16523;DHT22;19889;52.546;13.348;2023-04-02T04:46:56;6.40;99.90
16523;DHT22;19889;52.546;13.348;2023-04-02T04:49:31;6.40;99.90
16523;DHT22;19889;52.546;13.348;2023-04-02T04:52:08;6.60;99.90
16523;DHT22;19889;52.546;13.348;2023-04-02T04:54:38;6.40;99.90
16523;DHT22;19889;52.546;13.348;2023-04-02T04:57:20;6.40;99.90
16523;DHT22;19889;52.546;13.348;2023-04-02T04:59:54;6.50;99.90
16523;DHT22;19889;52.546;13.348;2023-04-02T05:02:24;6.50;99.90
16523;DHT22;19889;52.546;13.348;2023-04-02T05:04:55;6.50;99.90
16523;DHT22;19889;52.546;13.348;2023-04-02T05:07:27;7.40;99.90
16523;DHT22;19889;52.546;13.348;2023-04-02T05:09:58;6.40;99.90
16523;DHT22;19889;52.546;13.348;2023-04-02T05:12:34;6.40;99.90
16523;DHT22;19889;52.546;13.348;2023-04-02T05:15:13;6.40;99.90
16523;DHT22;19889;52.546;13.348;2023-04-02T05:17:46;6.40;99.90
16523;DHT22;19889;52.546;13.348;2023-04-02T05:20:21;6.30;99.90
16523;DHT22;19889;52.546;13.348;2023-04-02T05:22:55;6.40;99.90
16523;DHT22;19889;52.546;13.348;2023-04-02T05:25:26;6.70;99.90
16523;DHT22;19889;52.546;13.348;2023-04-02T05:28:02;6.30;99.90
16523;DHT22;19889;52.546;13.348;2023-04-02T05:30:43;6.30;99.90
16523;DHT22;19889;52.546;13.348;2023-04-02T05:33:20;6.40;99.90
16523;DHT22;19889;52.546;13.348;2023-04-02T05:35:55;6.30;99.90
16523;DHT22;19889;52.546;13.348;2023-04-02T05:38:26;6.30;99.90
16523;DHT22;19889;52.546;13.348;2023-04-02T05:40:58;6.30;99.90
16523;DHT22;19889;52.546;13.348;2023-04-02T05:43:28;6.60;99.90
16523;DHT22;19889;52.546;13.348;2023-04-02T05:46:00;6.30;99.90
16523;DHT22;19889;52.546;13.348;2023-04-02T05:48:31;6.30;99.90
16523;DHT22;19889;52.546;13.348;2023-04-02T05:51:02;6.40;99.90
16523;DHT22;19889;52.546;13.348;2023-04-02T05:53:33;6.20;99.90
16523;DHT22;19889;52.546;13.348;2023-04-02T05:56:06;6.40;99.90
16523;DHT22;19889;52.546;13.348;2023-04-02T05:58:39;6.70;99.90
16523;DHT22;19889;52.546;13.348;2023-04-02T06:01:31;6.40;99.90
16523;DHT22;19889;52.546;13.348;2023-04-02T06:04:10;6.40;99.90
16523;DHT22;19889;52.546;13.348;2023-04-02T06:06:51;6.70;99.90
16523;DHT22;19889;52.546;13.348;2023-04-02T06:09:29;6.30;99.90
16523;DHT22;19889;52.546;13.348;2023-04-02T06:12:07;6.30;99.90
16523;DHT22;19889;52.546;13.348;2023-04-02T06:14:36;6.30;99.90
16523;DHT22;19889;52.546;13.348;2023-04-02T06:17:04;6.40;99.90
16523;DHT22;19889;52.546;13.348;2023-04-02T06:19:34;6.40;99.90
16523;DHT22;19889;52.546;13.348;2023-04-02T06:22:13;6.40;99.90
16523;DHT22;19889;52.546;13.348;2023-04-02T06:24:43;6.40;99.90
16523;DHT22;19889;52.546;13.348;2023-04-02T06:27:14;6.40;99.90
16523;DHT22;19889;52.546;13.348;2023-04-02T06:29:46;6.50;99.90
16523;DHT22;19889;52.546;13.348;2023-04-02T06:32:19;6.60;99.90
16523;DHT22;19889;52.546;13.348;2023-04-02T06:34:48;6.70;99.90
16523;DHT22;19889;52.546;13.348;2023-04-02T06:37:22;6.60;99.90
16523;DHT22;19889;52.546;13.348;2023-04-02T06:39:57;6.60;99.90
16523;DHT22;19889;52.546;13.348;2023-04-02T06:42:27;6.60;99.90
16523;DHT22;19889;52.546;13.348;2023-04-02T06:45:05;6.60;99.90
16523;DHT22;19889;52.546;13.348;2023-04-02T06:48:00;6.60;99.90
16523;DHT22;19889;52.546;13.348;2023-04-02T06:50:45;6.50;99.90
16523;DHT22;19889;52.546;13.348;2023-04-02T06:53:19;6.40;99.90
16523;DHT22;19889;52.546;13.348;2023-04-02T06:55:50;6.50;99.90
16523;DHT22;19889;52.546;13.348;2023-04-02T06:58:22;6.60;99.90
16523;DHT22;19889;52.546;13.348;2023-04-02T07:00:51;6.60;99.90
16523;DHT22;19889;52.546;13.348;2023-04-02T07:03:27;6.60;99.90
16523;DHT22;19889;52.546;13.348;2023-04-02T07:05:59;6.70;99.90
16523;DHT22;19889;52.546;13.348;2023-04-02T07:08:29;6.60;99.90
16523;DHT22;19889;52.546;13.348;2023-04-02T07:10:56;6.70;99.90
16523;DHT22;19889;52.546;13.348;2023-04-02T07:13:24;6.70;99.90
16523;DHT22;19889;52.546;13.348;2023-04-02T07:15:52;6.70;99.90
16523;DHT22;19889;52.546;13.348;2023-04-02T07:18:25;6.80;99.90
16523;DHT22;19889;52.546;13.348;2023-04-02T07:20:53;6.70;99.90
16523;DHT22;19889;52.546;13.348;2023-04-02T07:23:20;6.80;99.90
16523;DHT22;19889;52.546;13.348;2023-04-02T07:25:48;6.70;99.90
16523;DHT22;19889;52.546;13.348;2023-04-02T07:28:16;6.70;99.90
16523;DHT22;19889;52.546;13.348;2023-04-02T07:30:44;6.70;99.90
16523;DHT22;19889;52.546;13.348;2023-04-02T07:33:12;6.70;99.90
16523;DHT22;19889;52.546;13.348;2023-04-02T07:35:39;7.00;99.90
16523;DHT22;19889;52.546;13.348;2023-04-02T07:38:07;6.80;99.90
16523;DHT22;19889;52.546;13.348;2023-04-02T07:40:34;6.90;99.90
16523;DHT22;19889;52.546;13.348;2023-04-02T07:43:02;7.70;99.90
16523;DHT22;19889;52.546;13.348;2023-04-02T07:45:29;7.00;99.90
16523;DHT22;19889;52.546;13.348;2023-04-02T07:47:57;7.00;99.90
16523;DHT22;19889;52.546;13.348;2023-04-02T07:50:24;7.00;99.90
16523;DHT22;19889;52.546;13.348;2023-04-02T07:52:51;7.00;99.90
16523;DHT22;19889;52.546;13.348;2023-04-02T07:55:17;7.20;99.90
16523;DHT22;19889;52.546;13.348;2023-04-02T07:57:49;7.60;99.90
16523;DHT22;19889;52.546;13.348;2023-04-02T08:00:19;7.10;99.90
16523;DHT22;19889;52.546;13.348;2023-04-02T08:02:47;7.10;99.90
16523;DHT22;19889;52.546;13.348;2023-04-02T08:05:14;7.30;99.90
16523;DHT22;19889;52.546;13.348;2023-04-02T08:07:42;7.10;99.90
16523;DHT22;19889;52.546;13.348;2023-04-02T08:10:11;7.20;99.90
16523;DHT22;19889;52.546;13.348;2023-04-02T08:12:38;7.20;99.90
16523;DHT22;19889;52.546;13.348;2023-04-02T08:15:06;7.10;99.90
16523;DHT22;19889;52.546;13.348;2023-04-02T08:17:35;7.10;99.90
16523;DHT22;19889;52.546;13.348;2023-04-02T08:20:02;7.20;99.90
16523;DHT22;19889;52.546;13.348;2023-04-02T08:22:31;7.10;99.90
16523;DHT22;19889;52.546;13.348;2023-04-02T08:24:58;7.10;99.90
16523;DHT22;19889;52.546;13.348;2023-04-02T08:27:25;7.00;99.90
16523;DHT22;19889;52.546;13.348;2023-04-02T08:29:52;7.00;99.90
16523;DHT22;19889;52.546;13.348;2023-04-02T08:32:19;7.00;99.90
16523;DHT22;19889;52.546;13.348;2023-04-02T08:34:49;7.10;99.90
16523;DHT22;19889;52.546;13.348;2023-04-02T08:37:16;7.00;99.90
16523;DHT22;19889;52.546;13.348;2023-04-02T08:39:42;7.00;99.90
16523;DHT22;19889;52.546;13.348;2023-04-02T08:42:18;7.00;99.90
16523;DHT22;19889;52.546;13.348;2023-04-02T08:44:57;7.00;99.90
16523;DHT22;19889;52.546;13.348;2023-04-02T08:47:35;7.00;99.90
16523;DHT22;19889;52.546;13.348;2023-04-02T08:50:13;7.00;99.90
16523;DHT22;19889;52.546;13.348;2023-04-02T08:52:42;7.60;99.90
16523;DHT22;19889;52.546;13.348;2023-04-02T08:55:18;7.30;99.90
16523;DHT22;19889;52.546;13.348;2023-04-02T08:57:53;6.90;99.90
16523;DHT22;19889;52.546;13.348;2023-04-02T09:00:32;6.90;99.90
16523;DHT22;19889;52.546;13.348;2023-04-02T09:03:06;6.90;99.90
16523;DHT22;19889;52.546;13.348;2023-04-02T09:05:38;7.00;99.90
16523;DHT22;19889;52.546;13.348;2023-04-02T09:08:15;7.10;99.90
16523;DHT22;19889;52.546;13.348;2023-04-02T09:10:49;7.20;99.90
16523;DHT22;19889;52.546;13.348;2023-04-02T09:13:21;4.80;99.90
16523;DHT22;19889;52.546;13.348;2023-04-02T09:15:49;7.70;99.90
16523;DHT22;19889;52.546;13.348;2023-04-02T09:18:19;7.30;99.90
16523;DHT22;19889;52.546;13.348;2023-04-02T09:20:49;7.30;99.90
16523;DHT22;19889;52.546;13.348;2023-04-02T09:23:18;7.80;99.90
16523;DHT22;19889;52.546;13.348;2023-04-02T09:25:47;7.20;99.90
16523;DHT22;19889;52.546;13.348;2023-04-02T09:28:15;7.20;99.90
16523;DHT22;19889;52.546;13.348;2023-04-02T09:30:59;7.20;99.90
16523;DHT22;19889;52.546;13.348;2023-04-02T09:33:45;7.30;99.90
16523;DHT22;19889;52.546;13.348;2023-04-02T09:36:26;7.30;99.90
16523;DHT22;19889;52.546;13.348;2023-04-02T09:38:59;7.30;99.90
16523;DHT22;19889;52.546;13.348;2023-04-02T09:41:31;7.30;99.90
16523;DHT22;19889;52.546;13.348;2023-04-02T09:44:17;7.30;99.90
16523;DHT22;19889;52.546;13.348;2023-04-02T09:46:53;7.40;99.90
16523;DHT22;19889;52.546;13.348;2023-04-02T09:49:25;7.40;99.90
16523;DHT22;19889;52.546;13.348;2023-04-02T09:52:18;7.50;99.90
16523;DHT22;19889;52.546;13.348;2023-04-02T09:54:47;7.50;99.90
16523;DHT22;19889;52.546;13.348;2023-04-02T09:57:30;7.70;99.90
16523;DHT22;19889;52.546;13.348;2023-04-02T10:00:10;8.30;99.90
16523;DHT22;19889;52.546;13.348;2023-04-02T10:02:39;7.80;99.90
16523;DHT22;19889;52.546;13.348;2023-04-02T10:05:16;7.80;99.90
16523;DHT22;19889;52.546;13.348;2023-04-02T10:07:47;7.90;99.90
16523;DHT22;19889;52.546;13.348;2023-04-02T10:10:19;7.90;99.90
16523;DHT22;19889;52.546;13.348;2023-04-02T10:12:50;8.00;99.90
16523;DHT22;19889;52.546;13.348;2023-04-02T10:15:26;8.00;99.90
16523;DHT22;19889;52.546;13.348;2023-04-02T10:18:00;8.10;99.90
16523;DHT22;19889;52.546;13.348;2023-04-02T10:20:30;8.00;99.90
16523;DHT22;19889;52.546;13.348;2023-04-02T10:23:00;7.90;99.90
16523;DHT22;19889;52.546;13.348;2023-04-02T10:25:32;7.90;99.90
16523;DHT22;19889;52.546;13.348;2023-04-02T10:28:08;7.90;99.90
16523;DHT22;19889;52.546;13.348;2023-04-02T10:30:47;7.90;99.90
16523;DHT22;19889;52.546;13.348;2023-04-02T10:33:19;7.80;99.90
16523;DHT22;19889;52.546;13.348;2023-04-02T10:35:52;7.90;99.90
16523;DHT22;19889;52.546;13.348;2023-04-02T10:38:41;7.90;99.90
16523;DHT22;19889;52.546;13.348;2023-04-02T10:41:25;8.00;99.90
16523;DHT22;19889;52.546;13.348;2023-04-02T10:44:18;8.10;99.90
16523;DHT22;19889;52.546;13.348;2023-04-02T10:46:55;8.10;99.90
16523;DHT22;19889;52.546;13.348;2023-04-02T10:49:31;8.20;99.90
16523;DHT22;19889;52.546;13.348;2023-04-02T10:52:07;8.30;99.90
16523;DHT22;19889;52.546;13.348;2023-04-02T10:54:46;8.40;99.90
16523;DHT22;19889;52.546;13.348;2023-04-02T10:57:24;8.40;99.90
16523;DHT22;19889;52.546;13.348;2023-04-02T10:59:56;8.40;99.90
16523;DHT22;19889;52.546;13.348;2023-04-02T11:02:31;8.40;99.90
16523;DHT22;19889;52.546;13.348;2023-04-02T11:05:05;8.30;99.90
16523;DHT22;19889;52.546;13.348;2023-04-02T11:07:42;8.40;99.90
16523;DHT22;19889;52.546;13.348;2023-04-02T11:10:14;8.40;99.90
16523;DHT22;19889;52.546;13.348;2023-04-02T11:12:49;8.40;99.90
16523;DHT22;19889;52.546;13.348;2023-04-02T11:15:18;8.30;99.90
16523;DHT22;19889;52.546;13.348;2023-04-02T11:17:46;8.30;99.90
16523;DHT22;19889;52.546;13.348;2023-04-02T11:23:18;8.30;99.90
16523;DHT22;19889;52.546;13.348;2023-04-02T11:25:47;8.30;99.90
16523;DHT22;19889;52.546;13.348;2023-04-02T11:28:25;8.30;99.90
16523;DHT22;19889;52.546;13.348;2023-04-02T11:30:53;8.30;99.90
16523;DHT22;19889;52.546;13.348;2023-04-02T11:33:37;8.30;99.90
16523;DHT22;19889;52.546;13.348;2023-04-02T11:39:47;8.30;99.90
16523;DHT22;19889;52.546;13.348;2023-04-02T11:42:33;8.40;99.90
16523;DHT22;19889;52.546;13.348;2023-04-02T11:48:27;8.40;99.90
16523;DHT22;19889;52.546;13.348;2023-04-02T11:50:55;7.90;99.90
16523;DHT22;19889;52.546;13.348;2023-04-02T11:53:27;8.60;99.90
16523;DHT22;19889;52.546;13.348;2023-04-02T11:56:08;8.60;99.90
16523;DHT22;19889;52.546;13.348;2023-04-02T11:58:45;8.60;99.90
16523;DHT22;19889;52.546;13.348;2023-04-02T12:01:42;8.60;99.90
16523;DHT22;19889;52.546;13.348;2023-04-02T12:04:37;8.70;99.90
16523;DHT22;19889;52.546;13.348;2023-04-02T12:07:27;8.70;99.90
16523;DHT22;19889;52.546;13.348;2023-04-02T12:10:03;8.70;99.90
16523;DHT22;19889;52.546;13.348;2023-04-02T12:12:35;8.70;99.90
16523;DHT22;19889;52.546;13.348;2023-04-02T12:15:06;8.70;99.90
16523;DHT22;19889;52.546;13.348;2023-04-02T12:17:50;8.70;99.90
16523;DHT22;19889;52.546;13.348;2023-04-02T12:20:20;8.70;99.90
16523;DHT22;19889;52.546;13.348;2023-04-02T12:22:49;8.70;99.90
16523;DHT22;19889;52.546;13.348;2023-04-02T12:25:24;8.70;99.90
16523;DHT22;19889;52.546;13.348;2023-04-02T12:28:14;8.80;99.90
16523;DHT22;19889;52.546;13.348;2023-04-02T12:30:46;8.80;99.90
16523;DHT22;19889;52.546;13.348;2023-04-02T12:33:27;8.80;99.90
16523;DHT22;19889;52.546;13.348;2023-04-02T12:35:57;8.80;99.90
16523;DHT22;19889;52.546;13.348;2023-04-02T12:38:25;8.80;99.90
16523;DHT22;19889;52.546;13.348;2023-04-02T12:40:54;8.80;99.90
16523;DHT22;19889;52.546;13.348;2023-04-02T12:43:23;8.80;99.90
16523;DHT22;19889;52.546;13.348;2023-04-02T12:45:52;8.80;99.90
16523;DHT22;19889;52.546;13.348;2023-04-02T12:48:20;8.80;99.90
16523;DHT22;19889;52.546;13.348;2023-04-02T12:50:48;8.80;99.90
16523;DHT22;19889;52.546;13.348;2023-04-02T12:53:22;8.80;99.90
16523;DHT22;19889;52.546;13.348;2023-04-02T12:55:51;8.80;99.90
16523;DHT22;19889;52.546;13.348;2023-04-02T12:58:27;8.80;99.90
16523;DHT22;19889;52.546;13.348;2023-04-02T13:01:17;8.80;99.90
16523;DHT22;19889;52.546;13.348;2023-04-02T13:03:58;8.90;99.90
16523;DHT22;19889;52.546;13.348;2023-04-02T13:06:25;8.90;99.90
16523;DHT22;19889;52.546;13.348;2023-04-02T13:08:53;8.90;99.90
16523;DHT22;19889;52.546;13.348;2023-04-02T13:11:20;8.90;99.90
16523;DHT22;19889;52.546;13.348;2023-04-02T13:13:48;9.00;99.90
16523;DHT22;19889;52.546;13.348;2023-04-02T13:16:27;9.00;99.90
16523;DHT22;19889;52.546;13.348;2023-04-02T13:19:10;9.10;99.90
16523;DHT22;19889;52.546;13.348;2023-04-02T13:21:37;9.00;99.90
16523;DHT22;19889;52.546;13.348;2023-04-02T13:24:15;9.00;99.90
16523;DHT22;19889;52.546;13.348;2023-04-02T13:26:42;9.00;99.90
16523;DHT22;19889;52.546;13.348;2023-04-02T13:29:24;9.00;99.90
16523;DHT22;19889;52.546;13.348;2023-04-02T13:31:54;9.00;99.90
16523;DHT22;19889;52.546;13.348;2023-04-02T13:34:22;9.10;99.90
16523;DHT22;19889;52.546;13.348;2023-04-02T13:36:49;9.10;99.90
16523;DHT22;19889;52.546;13.348;2023-04-02T13:39:17;9.10;99.90
16523;DHT22;19889;52.546;13.348;2023-04-02T13:41:46;9.00;99.90
16523;DHT22;19889;52.546;13.348;2023-04-02T13:44:19;9.10;99.90
16523;DHT22;19889;52.546;13.348;2023-04-02T13:46:46;9.10;99.90
16523;DHT22;19889;52.546;13.348;2023-04-02T13:49:15;9.70;99.90
16523;DHT22;19889;52.546;13.348;2023-04-02T13:51:44;9.10;99.90
16523;DHT22;19889;52.546;13.348;2023-04-02T13:54:17;9.10;99.90
16523;DHT22;19889;52.546;13.348;2023-04-02T13:56:46;9.10;99.90
16523;DHT22;19889;52.546;13.348;2023-04-02T13:59:13;9.10;99.90
16523;DHT22;19889;52.546;13.348;2023-04-02T14:01:42;9.10;99.90
16523;DHT22;19889;52.546;13.348;2023-04-02T14:04:15;9.10;99.90
16523;DHT22;19889;52.546;13.348;2023-04-02T14:10:00;9.10;99.90
16523;DHT22;19889;52.546;13.348;2023-04-02T14:12:38;9.00;99.90
16523;DHT22;19889;52.546;13.348;2023-04-02T14:15:18;9.00;99.90
16523;DHT22;19889;52.546;13.348;2023-04-02T14:17:59;9.00;99.90
16523;DHT22;19889;52.546;13.348;2023-04-02T14:20:37;9.00;99.90
16523;DHT22;19889;52.546;13.348;2023-04-02T14:23:35;9.00;99.90
16523;DHT22;19889;52.546;13.348;2023-04-02T14:26:13;8.90;99.90
16523;DHT22;19889;52.546;13.348;2023-04-02T14:28:49;8.90;99.90
16523;DHT22;19889;52.546;13.348;2023-04-02T14:31:26;8.90;99.90
16523;DHT22;19889;52.546;13.348;2023-04-02T14:34:02;8.90;99.90
16523;DHT22;19889;52.546;13.348;2023-04-02T14:36:38;9.00;99.90
16523;DHT22;19889;52.546;13.348;2023-04-02T14:39:10;8.90;99.90
16523;DHT22;19889;52.546;13.348;2023-04-02T14:41:46;9.00;99.90
16523;DHT22;19889;52.546;13.348;2023-04-02T14:44:19;8.90;99.90
16523;DHT22;19889;52.546;13.348;2023-04-02T14:46:49;9.00;99.90
16523;DHT22;19889;52.546;13.348;2023-04-02T14:49:24;8.90;99.90
16523;DHT22;19889;52.546;13.348;2023-04-02T14:51:58;9.00;99.90
16523;DHT22;19889;52.546;13.348;2023-04-02T14:54:30;9.00;99.90
16523;DHT22;19889;52.546;13.348;2023-04-02T14:57:04;9.00;99.90
16523;DHT22;19889;52.546;13.348;2023-04-02T14:59:34;8.90;99.90
16523;DHT22;19889;52.546;13.348;2023-04-02T15:02:06;8.90;99.90
16523;DHT22;19889;52.546;13.348;2023-04-02T15:04:39;8.90;99.90
16523;DHT22;19889;52.546;13.348;2023-04-02T15:07:15;8.90;99.90
16523;DHT22;19889;52.546;13.348;2023-04-02T15:09:46;8.90;99.90
16523;DHT22;19889;52.546;13.348;2023-04-02T15:12:20;8.90;99.90
16523;DHT22;19889;52.546;13.348;2023-04-02T15:14:51;8.80;99.90
16523;DHT22;19889;52.546;13.348;2023-04-02T15:17:20;8.80;99.90
16523;DHT22;19889;52.546;13.348;2023-04-02T15:19:47;8.90;99.90
16523;DHT22;19889;52.546;13.348;2023-04-02T15:22:25;8.90;99.90
16523;DHT22;19889;52.546;13.348;2023-04-02T15:25:05;8.80;99.90
16523;DHT22;19889;52.546;13.348;2023-04-02T15:27:47;8.80;99.90
16523;DHT22;19889;52.546;13.348;2023-04-02T15:30:21;8.80;99.90
16523;DHT22;19889;52.546;13.348;2023-04-02T15:32:49;8.80;99.90
16523;DHT22;19889;52.546;13.348;2023-04-02T15:35:30;8.70;99.90
16523;DHT22;19889;52.546;13.348;2023-04-02T15:38:07;8.70;99.90
16523;DHT22;19889;52.546;13.348;2023-04-02T15:40:45;8.70;99.90
16523;DHT22;19889;52.546;13.348;2023-04-02T15:43:20;8.80;99.90
16523;DHT22;19889;52.546;13.348;2023-04-02T15:45:56;8.80;99.90
16523;DHT22;19889;52.546;13.348;2023-04-02T15:48:51;8.80;99.90
16523;DHT22;19889;52.546;13.348;2023-04-02T15:51:32;8.80;99.90
16523;DHT22;19889;52.546;13.348;2023-04-02T15:54:11;8.70;99.90
16523;DHT22;19889;52.546;13.348;2023-04-02T15:56:51;8.70;99.90
16523;DHT22;19889;52.546;13.348;2023-04-02T15:59:34;8.70;99.90
16523;DHT22;19889;52.546;13.348;2023-04-02T16:02:26;8.60;99.90
16523;DHT22;19889;52.546;13.348;2023-04-02T16:05:01;8.70;99.90
16523;DHT22;19889;52.546;13.348;2023-04-02T16:07:49;8.60;99.90
16523;DHT22;19889;52.546;13.348;2023-04-02T16:10:21;8.60;99.90
16523;DHT22;19889;52.546;13.348;2023-04-02T16:12:51;8.60;99.90
16523;DHT22;19889;52.546;13.348;2023-04-02T16:15:23;8.50;99.90
16523;DHT22;19889;52.546;13.348;2023-04-02T16:17:55;6.50;99.90
16523;DHT22;19889;52.546;13.348;2023-04-02T16:20:25;8.50;99.90
16523;DHT22;19889;52.546;13.348;2023-04-02T16:22:59;8.60;99.90
16523;DHT22;19889;52.546;13.348;2023-04-02T16:25:33;8.50;99.90
16523;DHT22;19889;52.546;13.348;2023-04-02T16:28:11;8.40;99.90
16523;DHT22;19889;52.546;13.348;2023-04-02T16:30:47;8.40;99.90